createdAt,value
2022-09-07T00:01:53.065Z,94852.97
2022-09-07T00:04:20.737Z,94854.28
2022-09-07T00:06:48.378Z,94847.09
2022-09-07T00:09:15.996Z,94853.63
2022-09-07T00:11:43.607Z,94850.06
2022-09-07T00:14:11.196Z,94859.44
2022-09-07T00:16:38.834Z,94851.84
2022-09-07T00:19:07.945Z,94859.88
2022-09-07T00:21:36.097Z,94870.09
2022-09-07T00:24:04.497Z,94862.94
2022-09-07T00:26:32.770Z,94867.84
2022-09-07T00:29:02.250Z,94867.84
2022-09-07T00:31:31.142Z,94858.47
2022-09-07T00:34:00.595Z,94862.94
2022-09-07T00:36:29.802Z,94862.47
2022-09-07T00:38:57.710Z,94863.38
2022-09-07T00:41:25.561Z,94867.53
2022-09-07T00:43:54.869Z,94865.63
2022-09-07T00:46:24.302Z,94867.28
2022-09-07T00:48:56.591Z,94862.88
2022-09-07T00:51:28.709Z,94867.28
2022-09-07T00:53:59.265Z,94867.28
2022-09-07T00:56:29.806Z,94860.66
2022-09-07T00:58:58.668Z,94861.78
2022-09-07T01:01:27.060Z,94856.56
2022-09-07T01:03:56.634Z,94848.31
2022-09-07T01:06:27.915Z,94848.88
2022-09-07T01:08:57.948Z,94845.63
2022-09-07T01:11:26.310Z,94853.31
2022-09-07T01:13:55.267Z,94850.56
2022-09-07T01:16:33.690Z,94844.56
2022-09-07T01:19:14.525Z,94842.09
2022-09-07T01:21:50.150Z,94842.09
2022-09-07T01:24:34.877Z,94846.84
2022-09-07T01:27:35.055Z,94839.69
2022-09-07T01:30:05.761Z,94844.69
2022-09-07T01:32:44.162Z,94844.69
2022-09-07T01:35:18.531Z,94841.63
2022-09-07T01:37:55.040Z,94840.22
2022-09-07T01:40:31.129Z,94844.09
2022-09-07T01:43:05.134Z,94848.47
2022-09-07T01:45:35.462Z,94848.75
2022-09-07T01:48:06.020Z,94857.94
2022-09-07T01:50:36.627Z,94851.88
2022-09-07T01:53:09.855Z,94841.41
2022-09-07T01:55:40.484Z,94852.66
2022-09-07T01:58:12.708Z,94846.34
2022-09-07T02:00:40.998Z,94850.72
2022-09-07T02:03:12.909Z,94848.75
2022-09-07T02:05:44.505Z,94840.34
2022-09-07T02:08:14.765Z,94832.34
2022-09-07T02:10:45.250Z,94833.22
2022-09-07T02:13:17.297Z,94829.66
2022-09-07T02:15:46.777Z,94831.28
2022-09-07T02:18:15.405Z,94837.09
2022-09-07T02:20:47.310Z,94830.47
2022-09-07T02:23:19.270Z,94819.75
2022-09-07T02:25:52.126Z,94825.25
2022-09-07T02:28:23.547Z,94817.28
2022-09-07T02:30:51.326Z,94820.16
2022-09-07T02:33:19.140Z,94813.97
2022-09-07T02:35:46.994Z,94812.38
2022-09-07T02:38:14.709Z,94820.31
2022-09-07T02:40:42.296Z,94830.47
2022-09-07T02:43:10.804Z,94843.94
2022-09-07T02:46:03.596Z,94839.53
2022-09-07T02:48:38.701Z,94828.53
2022-09-07T02:51:12.745Z,94843.63
2022-09-07T02:53:59.712Z,94841.13
2022-09-07T02:56:42.601Z,94828.41
2022-09-07T02:59:19.915Z,94827.00
2022-09-07T03:01:57.155Z,94838.03
2022-09-07T03:04:26.989Z,94832.53
2022-09-07T03:06:58.419Z,94831.69
2022-09-07T03:09:30.471Z,94836.94
2022-09-07T03:11:57.924Z,94828.69
2022-09-07T03:14:26.872Z,94828.69
2022-09-07T03:16:57.226Z,94828.34
2022-09-07T03:19:24.954Z,94824.78
2022-09-07T03:21:52.878Z,94825.59
2022-09-07T03:24:20.559Z,94820.09
2022-09-07T03:26:50.502Z,94817.84
2022-09-07T03:29:18.415Z,94817.28
2022-09-07T03:31:46.052Z,94819.88
2022-09-07T03:34:15.095Z,94822.91
2022-09-07T03:36:42.737Z,94829.47
2022-09-07T03:39:12.384Z,94828.69
2022-09-07T03:41:40.031Z,94829.88
2022-09-07T03:44:08.656Z,94828.75
2022-09-07T03:46:36.345Z,94828.19
2022-09-07T03:49:04.005Z,94842.44
2022-09-07T03:51:32.974Z,94858.66
2022-09-07T03:54:00.853Z,94855.34
2022-09-07T03:56:28.911Z,94845.09
2022-09-07T03:58:56.858Z,94844.75
2022-09-07T04:01:26.151Z,94836.75
2022-09-07T04:03:54.536Z,94839.50
2022-09-07T04:06:23.689Z,94840.59
2022-09-07T04:08:52.623Z,94845.81
2022-09-07T04:11:20.421Z,94848.91
2022-09-07T04:13:48.013Z,94846.44
2022-09-07T04:16:18.458Z,94845.03
2022-09-07T04:18:46.465Z,94851.38
2022-09-07T04:21:14.521Z,94844.44
2022-09-07T04:23:43.380Z,94843.69
2022-09-07T04:26:16.708Z,94844.00
2022-09-07T04:28:44.727Z,94845.69
2022-09-07T04:31:12.474Z,94851.22
2022-09-07T04:33:40.100Z,94842.44
2022-09-07T04:36:08.283Z,94850.72
2022-09-07T04:38:36.105Z,94846.34
2022-09-07T04:41:06.571Z,94851.88
2022-09-07T04:43:35.569Z,94852.66
2022-09-07T04:46:03.768Z,94846.56
2022-09-07T04:48:31.565Z,94851.78
2022-09-07T04:51:05.932Z,94852.00
2022-09-07T04:53:33.686Z,94851.13
2022-09-07T04:56:01.698Z,94848.91
2022-09-07T04:58:29.566Z,94852.72
2022-09-07T05:01:02.137Z,94852.41
2022-09-07T05:03:29.882Z,94846.31
2022-09-07T05:05:57.496Z,94853.19
2022-09-07T05:08:25.136Z,94852.06
2022-09-07T05:10:53.758Z,94857.03
2022-09-07T05:13:21.738Z,94860.31
2022-09-07T05:15:49.374Z,94867.19
2022-09-07T05:18:18.312Z,94869.34
2022-09-07T05:20:45.897Z,94865.47
2022-09-07T05:23:13.922Z,94872.91
2022-09-07T05:25:44.647Z,94868.75
2022-09-07T05:28:14.858Z,94874.81
2022-09-07T05:36:25.598Z,94881.63
2022-09-07T05:38:53.556Z,94893.78
2022-09-07T05:41:22.406Z,94894.88
2022-09-07T05:46:38.069Z,94896.53
2022-09-07T05:49:08.056Z,94903.38
2022-09-07T05:51:37.022Z,94899.53
2022-09-07T05:54:04.880Z,94902.78
2022-09-07T05:56:35.810Z,94907.50
2022-09-07T05:59:03.443Z,94910.75
2022-09-07T06:01:31.196Z,94906.91
2022-09-07T06:03:59.013Z,94909.66
2022-09-07T06:06:28.111Z,94918.97
2022-09-07T06:08:57.635Z,94919.41
2022-09-07T06:11:26.475Z,94920.44
2022-09-07T06:13:54.222Z,94910.41
2022-09-07T06:16:22.757Z,94922.44
2022-09-07T06:18:51.178Z,94924.59
2022-09-07T06:21:20.495Z,94926.78
2022-09-07T06:23:50.006Z,94939.13
2022-09-07T06:26:19.032Z,94933.84
2022-09-07T06:28:49.853Z,94933.47
2022-09-07T06:31:20.374Z,94934.75
2022-09-07T06:33:48.521Z,94938.91
2022-09-07T06:36:17.445Z,94939.47
2022-09-07T06:38:45.253Z,94933.28
2022-09-07T06:44:04.426Z,94940.66
2022-09-07T06:49:20.077Z,94949.00
2022-09-07T06:51:47.976Z,94947.97
2022-09-07T06:57:08.789Z,94954.00
2022-09-07T06:59:37.210Z,94948.19
2022-09-07T07:02:05.567Z,94958.56
2022-09-07T07:04:39.558Z,94955.03
2022-09-07T07:07:11.274Z,94957.81
2022-09-07T07:09:39.334Z,94963.81
2022-09-07T07:12:08.573Z,94963.41
2022-09-07T07:14:39.758Z,94977.72
2022-09-07T07:17:08.912Z,94969.13
2022-09-07T07:19:36.591Z,94971.56
2022-09-07T07:22:29.549Z,94964.22
2022-09-07T07:24:51.941Z,94968.09
2022-09-07T07:27:21.593Z,94974.63
2022-09-07T07:29:50.059Z,94971.25
2022-09-07T07:32:17.902Z,94971.56
2022-09-07T07:34:45.579Z,94972.78
2022-09-07T07:37:13.212Z,94980.28
2022-09-07T07:42:31.315Z,94974.84
2022-09-07T07:47:50.224Z,94977.16
2022-09-07T07:50:34.194Z,94985.78
2022-09-07T07:55:50.035Z,94987.09
2022-09-07T07:58:19.089Z,94982.25
2022-09-07T08:00:55.918Z,94979.06
2022-09-07T08:03:25.321Z,94987.66
2022-09-07T08:05:53.308Z,94998.31
2022-09-07T08:08:21.390Z,94991.50
2022-09-07T08:10:49.501Z,94982.44
2022-09-07T08:13:17.834Z,94992.75
2022-09-07T08:15:47.178Z,94984.84
2022-09-07T08:18:16.591Z,94984.72
2022-09-07T08:20:44.475Z,94978.47
2022-09-07T08:23:12.230Z,94982.41
2022-09-07T08:25:39.951Z,94979.69
2022-09-07T08:28:07.865Z,94973.22
2022-09-07T08:30:35.677Z,94978.22
2022-09-07T08:33:04.942Z,94966.50
2022-09-07T08:35:32.731Z,94962.97
2022-09-07T08:38:00.492Z,94968.31
2022-09-07T08:40:28.304Z,94961.00
2022-09-07T08:43:03.364Z,94976.13
2022-09-07T08:45:33.641Z,94961.31
2022-09-07T08:48:01.815Z,94963.00
2022-09-07T08:50:34.761Z,94956.50
2022-09-07T08:53:05.733Z,94955.66
2022-09-07T08:55:35.831Z,94955.78
2022-09-07T08:58:22.160Z,94958.50
2022-09-07T09:06:43.174Z,94957.00
2022-09-07T09:09:17.785Z,94957.94
2022-09-07T09:11:53.879Z,94960.22
2022-09-07T09:16:59.094Z,94965.47
2022-09-07T09:19:50.689Z,94967.84
2022-09-07T09:22:22.887Z,94967.69
2022-09-07T09:24:53.232Z,94959.81
2022-09-07T09:27:21.143Z,94964.28
2022-09-07T09:29:48.770Z,94963.97
2022-09-07T09:32:37.708Z,94952.69
2022-09-07T09:35:12.873Z,94950.25
2022-09-07T09:37:43.099Z,94954.81
2022-09-07T09:40:23.400Z,94952.34
2022-09-07T09:43:01.883Z,94950.03
2022-09-07T09:46:11.988Z,94947.72
2022-09-07T09:48:21.101Z,94952.41
2022-09-07T09:53:42.225Z,94958.94
2022-09-07T09:56:10.861Z,94951.44
2022-09-07T10:01:35.311Z,94950.06
2022-09-07T10:04:22.623Z,94941.19
2022-09-07T10:06:54.864Z,94937.88
2022-09-07T10:09:27.074Z,94940.00
2022-09-07T10:12:06.745Z,94942.06
2022-09-07T10:14:37.208Z,94938.25
2022-09-07T10:17:15.460Z,94943.66
2022-09-07T10:19:44.209Z,94937.28
2022-09-07T10:22:32.081Z,94928.28
2022-09-07T10:25:02.062Z,94938.16
2022-09-07T10:27:34.863Z,94937.28
2022-09-07T10:30:05.906Z,94929.41
2022-09-07T10:32:44.072Z,94918.31
2022-09-07T10:35:19.086Z,94912.66
2022-09-07T10:37:54.452Z,94910.13
2022-09-07T10:40:32.387Z,94910.63
2022-09-07T10:43:23.496Z,94906.59
2022-09-07T10:46:03.651Z,94899.31
2022-09-07T10:48:34.491Z,94902.84
2022-09-07T10:51:13.788Z,94891.13
2022-09-07T10:56:51.853Z,94876.09
2022-09-07T11:02:23.542Z,94883.66
2022-09-07T11:04:59.953Z,94874.28
2022-09-07T11:07:47.447Z,94873.66
2022-09-07T11:10:20.579Z,94859.19
2022-09-07T11:12:52.418Z,94864.06
2022-09-07T11:15:21.010Z,94852.72
2022-09-07T11:17:53.114Z,94847.34
2022-09-07T11:20:26.821Z,94848.50
2022-09-07T11:23:02.165Z,94842.66
2022-09-07T11:25:33.953Z,94844.06
2022-09-07T11:28:08.504Z,94845.56
2022-09-07T11:30:38.358Z,94840.50
2022-09-07T11:33:12.359Z,94840.06
2022-09-07T11:35:48.774Z,94836.47
2022-09-07T11:38:25.987Z,94837.03
2022-09-07T11:41:03.015Z,94837.03
2022-09-07T11:43:34.286Z,94843.34
2022-09-07T11:46:05.198Z,94835.78
2022-09-07T11:48:36.107Z,94840.53
2022-09-07T11:51:06.062Z,94832.78
2022-09-07T11:53:37.013Z,94834.88
2022-09-07T11:56:12.033Z,94832.06
2022-09-07T11:58:52.925Z,94828.28
2022-09-07T12:01:29.864Z,94822.03
2022-09-07T12:04:16.440Z,94819.97
2022-09-07T12:07:18.170Z,94811.13
2022-09-07T12:09:58.035Z,94825.88
2022-09-07T12:12:54.248Z,94823.88
2022-09-07T12:15:31.675Z,94820.56
2022-09-07T12:18:09.824Z,94818.81
2022-09-07T12:20:41.798Z,94813.69
2022-09-07T12:23:21.473Z,94807.69
2022-09-07T12:25:50.605Z,94803.72
2022-09-07T12:28:22.027Z,94809.47
2022-09-07T12:30:57.855Z,94796.53
2022-09-07T12:33:36.667Z,94799.69
2022-09-07T12:36:41.244Z,94799.00
2022-09-07T12:39:28.739Z,94788.53
2022-09-07T12:45:41.958Z,94790.81
2022-09-07T12:48:13.919Z,94782.13
2022-09-07T12:50:54.745Z,94785.66
2022-09-07T12:53:29.294Z,94782.69
2022-09-07T12:56:18.916Z,94782.19
2022-09-07T12:58:52.739Z,94781.53
2022-09-07T13:01:28.514Z,94772.19
2022-09-07T13:04:18.069Z,94763.00
2022-09-07T13:07:10.086Z,94763.47
2022-09-07T13:09:37.785Z,94761.97
2022-09-07T13:15:33.524Z,94756.16
2022-09-07T13:18:03.539Z,94750.94
2022-09-07T13:20:36.074Z,94753.00
2022-09-07T13:23:23.891Z,94743.47
2022-09-07T13:25:54.533Z,94736.75
2022-09-07T13:28:28.332Z,94742.72
2022-09-07T13:31:18.144Z,94738.88
2022-09-07T13:33:48.911Z,94723.69
2022-09-07T13:36:33.657Z,94723.41
2022-09-07T13:39:01.466Z,94721.06
2022-09-07T13:41:33.433Z,94722.09
2022-09-07T13:44:04.126Z,94718.94
2022-09-07T13:46:49.428Z,94709.34
2022-09-07T13:49:26.913Z,94709.44
2022-09-07T13:52:01.909Z,94710.28
2022-09-07T13:54:42.480Z,94704.69
2022-09-07T13:57:17.909Z,94701.81
2022-09-07T13:59:48.289Z,94696.34
2022-09-07T14:02:23.640Z,94699.38
2022-09-07T14:04:52.457Z,94698.88
2022-09-07T14:07:22.589Z,94699.00
2022-09-07T14:09:50.560Z,94694.47
2022-09-07T14:12:21.143Z,94695.38
2022-09-07T14:15:09.483Z,94693.03
2022-09-07T14:17:37.327Z,94689.59
2022-09-07T14:20:06.413Z,94682.56
2022-09-07T14:22:35.707Z,94686.06
2022-09-07T14:25:06.380Z,94680.94
2022-09-07T14:27:36.158Z,94680.28
2022-09-07T14:30:22.713Z,94683.50
2022-09-07T14:32:52.486Z,94674.63
2022-09-07T14:35:22.892Z,94677.06
2022-09-07T14:37:51.344Z,94679.03
2022-09-07T14:40:23.004Z,94674.84
2022-09-07T14:42:50.767Z,94675.34
2022-09-07T14:45:32.083Z,94670.00
2022-09-07T14:48:00.238Z,94673.75
2022-09-07T14:50:31.034Z,94666.94
2022-09-07T14:55:47.532Z,94665.31
2022-09-07T14:58:25.510Z,94664.00
2022-09-07T15:03:57.796Z,94668.06
2022-09-07T15:09:28.943Z,94665.13
2022-09-07T15:12:05.530Z,94655.88
2022-09-07T15:14:33.565Z,94651.25
2022-09-07T15:19:51.369Z,94648.06
2022-09-07T15:22:20.363Z,94635.66
2022-09-07T15:24:48.251Z,94636.22
2022-09-07T15:27:20.380Z,94640.56
2022-09-07T15:29:48.178Z,94644.91
2022-09-07T15:32:18.229Z,94641.09
2022-09-07T15:34:46.142Z,94637.56
2022-09-07T15:40:07.458Z,94628.22
2022-09-07T15:45:23.167Z,94628.50
2022-09-07T15:47:53.444Z,94614.28
2022-09-07T15:50:23.186Z,94609.63
2022-09-07T15:52:51.300Z,94621.19
2022-09-07T15:55:19.567Z,94617.19
2022-09-07T15:57:51.184Z,94621.91
2022-09-07T16:00:22.583Z,94619.38
2022-09-07T16:03:08.373Z,94625.69
2022-09-07T16:05:36.816Z,94620.63
2022-09-07T16:10:54.478Z,94613.59
2022-09-07T16:13:24.234Z,94604.84
2022-09-07T16:15:52.253Z,94603.19
2022-09-07T16:18:21.395Z,94596.75
2022-09-07T16:20:52.762Z,94596.94
2022-09-07T16:23:20.554Z,94601.81
2022-09-07T16:25:58.569Z,94597.66
2022-09-07T16:28:26.417Z,94596.50
2022-09-07T16:30:54.401Z,94592.50
2022-09-07T16:33:31.236Z,94587.75
2022-09-07T16:36:06.172Z,94585.88
2022-09-07T16:38:49.355Z,94591.53
2022-09-07T16:41:20.453Z,94581.22
2022-09-07T16:43:48.357Z,94592.47
2022-09-07T16:46:17.460Z,94583.44
2022-09-07T16:48:46.588Z,94578.28
2022-09-07T16:51:21.861Z,94565.59
2022-09-07T16:53:50.589Z,94567.16
2022-09-07T16:56:19.659Z,94565.63
2022-09-07T16:58:48.646Z,94561.78
2022-09-07T17:01:17.710Z,94568.06
2022-09-07T17:03:49.383Z,94572.28
2022-09-07T17:06:17.658Z,94566.47
2022-09-07T17:08:46.199Z,94557.13
2022-09-07T17:11:15.773Z,94551.84
2022-09-07T17:13:44.519Z,94554.59
2022-09-07T17:16:14.114Z,94554.97
2022-09-07T17:21:33.159Z,94550.91
2022-09-07T17:24:03.834Z,94553.81
2022-09-07T17:26:32.055Z,94555.41
2022-09-07T17:29:00.907Z,94557.28
2022-09-07T17:34:18.611Z,94550.69
2022-09-07T17:36:47.697Z,94549.75
2022-09-07T17:39:17.512Z,94550.22
2022-09-07T17:41:46.975Z,94551.63
2022-09-07T17:44:14.606Z,94561.81
2022-09-07T17:46:42.249Z,94554.81
2022-09-07T17:49:12.347Z,94559.06
2022-09-07T17:51:40.176Z,94555.28
2022-09-07T17:54:12.771Z,94548.19
2022-09-07T17:56:40.822Z,94552.16
2022-09-07T18:01:56.390Z,94544.41
2022-09-07T18:04:24.513Z,94542.00
2022-09-07T18:06:52.150Z,94537.03
2022-09-07T18:09:21.714Z,94528.88
2022-09-07T18:11:50.321Z,94534.16
2022-09-07T18:14:18.952Z,94527.66
2022-09-07T18:16:49.302Z,94520.41
2022-09-07T18:19:18.265Z,94523.03
2022-09-07T18:21:47.686Z,94534.78
2022-09-07T18:24:17.622Z,94529.06
2022-09-07T18:26:51.588Z,94526.47
2022-09-07T18:29:31.363Z,94523.56
2022-09-07T18:32:01.488Z,94525.06
2022-09-07T18:34:30.713Z,94526.53
2022-09-07T18:36:59.165Z,94538.97
2022-09-07T18:39:27.098Z,94537.78
2022-09-07T18:41:56.378Z,94532.97
2022-09-07T18:47:21.422Z,94535.97
2022-09-07T18:49:51.485Z,94537.28
2022-09-07T18:55:08.494Z,94541.41
2022-09-07T18:57:37.424Z,94549.41
2022-09-07T19:00:06.705Z,94552.34
2022-09-07T19:02:34.425Z,94549.41
2022-09-07T19:07:49.645Z,94557.03
2022-09-07T19:10:17.780Z,94558.16
2022-09-07T19:12:46.756Z,94557.03
2022-09-07T19:15:14.783Z,94547.94
2022-09-07T19:17:42.328Z,94545.97
2022-09-07T19:20:10.871Z,94551.19
2022-09-07T19:22:38.986Z,94538.47
2022-09-07T19:25:07.159Z,94546.13
2022-09-07T19:27:34.732Z,94541.91
2022-09-07T19:30:03.746Z,94552.00
2022-09-07T19:32:31.311Z,94548.91
2022-09-07T19:34:58.919Z,94547.25
2022-09-07T19:37:28.788Z,94550.50
2022-09-07T19:39:56.665Z,94551.19
2022-09-07T19:42:24.771Z,94550.19
2022-09-07T19:44:52.594Z,94553.44
2022-09-07T19:47:21.900Z,94553.75
2022-09-07T19:49:49.517Z,94547.41
2022-09-07T19:52:17.117Z,94554.41
2022-09-07T19:54:44.714Z,94548.53
2022-09-07T19:57:12.318Z,94535.03
2022-09-07T19:59:39.899Z,94523.63
2022-09-07T20:02:07.539Z,94524.75
2022-09-07T20:04:36.450Z,94513.69
2022-09-07T20:07:04.213Z,94515.81
2022-09-07T20:09:31.752Z,94502.97
2022-09-07T20:12:01.724Z,94497.91
2022-09-07T20:14:29.418Z,94494.81
2022-09-07T20:16:57.297Z,94502.13
2022-09-07T20:19:24.868Z,94491.06
2022-09-07T20:21:55.723Z,94492.38
2022-09-07T20:24:23.463Z,94494.19
2022-09-07T20:26:51.180Z,94493.34
2022-09-07T20:29:28.272Z,94479.50
2022-09-07T20:31:56.859Z,94475.63
2022-09-07T20:34:24.674Z,94483.41
2022-09-07T20:36:53.819Z,94470.38
2022-09-07T20:39:21.954Z,94480.16
2022-09-07T20:41:49.554Z,94473.97
2022-09-07T20:44:17.470Z,94466.63
2022-09-07T20:46:45.229Z,94463.69
2022-09-07T20:49:12.853Z,94461.53
2022-09-07T20:51:40.659Z,94456.66
2022-09-07T20:54:10.125Z,94451.28
2022-09-07T20:56:37.742Z,94447.72
2022-09-07T20:59:05.312Z,94447.22
2022-09-07T21:01:35.116Z,94441.69
2022-09-07T21:04:04.021Z,94430.63
2022-09-07T21:06:32.688Z,94428.34
2022-09-07T21:09:00.703Z,94426.06
2022-09-07T21:11:31.124Z,94417.78
2022-09-07T21:14:00.512Z,94413.91
2022-09-07T21:16:28.462Z,94414.88
2022-09-07T21:18:57.845Z,94407.06
2022-09-07T21:21:27.173Z,94402.84
2022-09-07T21:23:59.344Z,94401.38
2022-09-07T21:26:28.939Z,94396.50
2022-09-07T21:28:57.183Z,94397.63
2022-09-07T21:31:25.302Z,94395.03
2022-09-07T21:33:55.107Z,94395.84
2022-09-07T21:36:22.899Z,94395.84
2022-09-07T21:38:50.485Z,94408.53
2022-09-07T21:41:20.139Z,94429.72
2022-09-07T21:43:49.153Z,94437.34
2022-09-07T21:46:18.224Z,94456.16
2022-09-07T21:48:46.400Z,94482.34
2022-09-07T21:51:14.211Z,94502.31
2022-09-07T21:53:41.961Z,94496.97
2022-09-07T21:56:12.485Z,94509.66
2022-09-07T21:58:40.340Z,94508.34
2022-09-07T22:01:14.352Z,94506.38
2022-09-07T22:03:42.192Z,94503.13
2022-09-07T22:06:10.823Z,94512.59
2022-09-07T22:08:39.713Z,94525.47
2022-09-07T22:11:08.668Z,94530.47
2022-09-07T22:13:36.363Z,94528.88
2022-09-07T22:16:04.689Z,94513.22
2022-09-07T22:18:34.814Z,94516.22
2022-09-07T22:21:04.333Z,94514.56
2022-09-07T22:23:32.071Z,94503.78
2022-09-07T22:25:59.866Z,94501.28
2022-09-07T22:28:29.444Z,94510.56
2022-09-07T22:30:57.116Z,94504.28
2022-09-07T22:33:25.191Z,94505.34
2022-09-07T22:35:54.115Z,94495.25
2022-09-07T22:38:21.671Z,94505.38
2022-09-07T22:40:49.241Z,94511.72
2022-09-07T22:43:16.790Z,94521.84
2022-09-07T22:45:44.507Z,94526.03
2022-09-07T22:48:12.083Z,94534.50
2022-09-07T22:50:39.664Z,94538.88
2022-09-07T22:53:08.599Z,94532.38
2022-09-07T22:55:39.250Z,94508.09
2022-09-07T22:58:06.798Z,94469.19
2022-09-07T23:00:36.668Z,94476.25
2022-09-07T23:03:04.993Z,94480.59
2022-09-07T23:05:36.977Z,94484.72
2022-09-07T23:08:05.024Z,94481.88
2022-09-07T23:10:36.349Z,94478.94
2022-09-07T23:13:04.599Z,94488.13
2022-09-07T23:15:32.201Z,94489.66
2022-09-07T23:17:59.753Z,94492.13
2022-09-07T23:20:27.301Z,94494.59
2022-09-07T23:22:54.906Z,94508.91
2022-09-07T23:25:22.661Z,94512.66
2022-09-07T23:27:51.597Z,94518.06
2022-09-07T23:30:19.194Z,94511.16
2022-09-07T23:32:46.799Z,94500.13
2022-09-07T23:35:16.667Z,94513.38
2022-09-07T23:37:44.563Z,94511.84
2022-09-07T23:40:12.356Z,94510.59
2022-09-07T23:42:40.017Z,94514.78
2022-09-07T23:45:10.280Z,94516.13
2022-09-07T23:47:37.854Z,94505.59
2022-09-07T23:50:05.783Z,94500.09
2022-09-07T23:52:33.622Z,94496.22
2022-09-07T23:55:01.248Z,94501.00
2022-09-07T23:57:28.856Z,94514.53
2022-09-07T23:59:56.398Z,94510.66
